Time;durP1;ratioP1;P1;durP2;ratioP2;P2;SDS_P1;SDS_P2;PMS_P1;PMS_P2;Temp;Humidity;BMP_temperature;BMP_pressure;BME280_temperature;BME280_humidity;BME280_pressure;Samples;Min_cycle;Max_cycle;Signal;HPM_P1;HPM_P2
2021/11/27 00:00:19;;;;;;;102.53;54.70;;;;;;;0.61;100.00;96620.28;2038494;29;20644;-73
2021/11/27 00:01:20;;;;;;;98.65;52.92;;;;;;;0.59;100.00;96617.97;2039178;28;20230;-72
2021/11/27 00:02:21;;;;;;;103.57;53.33;;;;;;;0.57;100.00;96620.88;2039183;28;20230;-72
2021/11/27 00:03:23;;;;;;;100.87;54.83;;;;;;;0.53;100.00;96624.38;2038841;28;20290;-73
2021/11/27 00:04:26;;;;;;;89.97;52.00;;;;;;;0.52;100.00;96628.88;2038344;29;20236;-72
2021/11/27 00:05:34;;;;;;;100.22;54.67;;;;;;;0.51;100.00;96629.91;2030999;29;20235;-73
2021/11/27 00:06:36;;;;;;;97.78;55.22;;;;;;;0.52;100.00;96634.09;2038417;29;20314;-72
2021/11/27 00:07:38;;;;;;;92.05;50.58;;;;;;;0.51;100.00;96629.91;2038849;28;20718;-72
2021/11/27 00:08:40;;;;;;;97.95;51.67;;;;;;;0.52;100.00;96628.88;2038444;29;20237;-73
2021/11/27 00:09:41;;;;;;;96.97;51.97;;;;;;;0.55;100.00;96644.00;2030371;29;20615;-72
2021/11/27 00:10:47;;;;;;;90.50;49.67;;;;;;;0.54;100.00;96625.94;2030668;29;20259;-72
2021/11/27 00:11:49;;;;;;;98.68;50.63;;;;;;;0.54;100.00;96628.56;2038492;29;20365;-72
2021/11/27 00:12:53;;;;;;;87.18;47.70;;;;;;;0.54;100.00;96637.22;2038617;29;20609;-72
2021/11/27 00:13:54;;;;;;;101.20;50.85;;;;;;;0.52;100.00;96638.56;2038096;29;20369;-72
2021/11/27 00:14:56;;;;;;;92.45;49.10;;;;;;;0.50;100.00;96641.47;2038545;29;20241;-72
2021/11/27 00:15:58;;;;;;;94.95;50.15;;;;;;;0.49;100.00;96639.91;2038295;29;20234;-72
2021/11/27 00:17:00;;;;;;;91.85;49.38;;;;;;;0.47;100.00;96641.28;2038310;29;20297;-73
2021/11/27 00:18:01;;;;;;;100.28;52.20;;;;;;;0.48;100.00;96638.38;2038422;29;20235;-72
2021/11/27 00:19:04;;;;;;;95.38;49.72;;;;;;;0.49;100.00;96636.53;2031022;29;20227;-72
2021/11/27 00:20:09;;;;;;;92.00;50.60;;;;;;;0.49;100.00;96645.16;2038246;29;20247;-72
2021/11/27 00:21:13;;;;;;;92.85;49.75;;;;;;;0.51;100.00;96650.13;2038629;28;20281;-73
2021/11/27 00:22:16;;;;;;;92.20;49.20;;;;;;;0.50;100.00;96651.97;2038468;29;20234;-72
2021/11/27 00:23:17;;;;;;;97.72;48.95;;;;;;;0.50;100.00;96651.97;2038339;29;20223;-72
2021/11/27 00:24:19;;;;;;;90.57;48.22;;;;;;;0.49;100.00;96658.28;2039035;28;20233;-72
2021/11/27 00:25:22;;;;;;;82.28;47.40;;;;;;;0.46;100.00;96655.47;2039086;28;20293;-72
2021/11/27 00:26:24;;;;;;;86.65;47.90;;;;;;;0.48;100.00;96654.09;2038697;28;20309;-72
2021/11/27 00:27:26;;;;;;;86.25;47.90;;;;;;;0.52;100.00;96654.28;2039015;28;20777;-72
2021/11/27 00:28:28;;;;;;;87.85;46.85;;;;;;;0.49;100.00;96663.53;2038174;29;20693;-73
2021/11/27 00:29:29;;;;;;;87.45;46.88;;;;;;;0.45;100.00;96662.56;2038229;29;20682;-73
2021/11/27 00:30:34;;;;;;;89.95;47.60;;;;;;;0.47;100.00;96657.03;2038919;28;20242;-72
2021/11/27 00:31:39;;;;;;;79.93;45.75;;;;;;;0.40;100.00;96672.34;2038222;29;20278;-73
2021/11/27 00:32:41;;;;;;;83.50;46.08;;;;;;;0.40;100.00;96667.88;2030446;29;20231;-72
2021/11/27 00:33:45;;;;;;;82.90;47.60;;;;;;;0.39;100.00;96660.31;2030758;29;20235;-72
2021/11/27 00:34:46;;;;;;;83.90;48.28;;;;;;;0.40;100.00;96662.63;2038238;29;20248;-73
2021/11/27 00:35:47;;;;;;;85.70;46.97;;;;;;;0.38;100.00;96662.16;2038141;29;20234;-72
2021/11/27 00:36:51;;;;;;;88.35;47.20;;;;;;;0.33;100.00;96670.09;2030292;29;20231;-73
2021/11/27 00:37:55;;;;;;;85.78;48.72;;;;;;;0.33;100.00;96670.09;2030253;29;20310;-73
2021/11/27 00:38:59;;;;;;;86.45;47.67;;;;;;;0.33;100.00;96671.94;2038057;29;20246;-73
2021/11/27 00:40:00;;;;;;;86.20;48.00;;;;;;;0.32;100.00;96671.16;2038731;28;20230;-72
2021/11/27 00:41:02;;;;;;;80.72;45.05;;;;;;;0.28;100.00;96662.34;2038505;28;20227;-72
2021/11/27 00:42:03;;;;;;;81.93;45.40;;;;;;;0.30;100.00;96668.06;2038933;28;20713;-72
2021/11/27 00:43:07;;;;;;;80.00;46.30;;;;;;;0.28;100.00;96664.97;2038402;29;20270;-72
2021/11/27 00:44:08;;;;;;;78.75;43.47;;;;;;;0.25;100.00;96668.13;2030187;29;20230;-73
2021/11/27 00:45:12;;;;;;;83.23;45.50;;;;;;;0.25;100.00;96676.78;2038240;29;20227;-72
2021/11/27 00:46:14;;;;;;;81.93;46.00;;;;;;;0.29;100.00;96679.63;2037972;29;20253;-72
2021/11/27 00:47:20;;;;;;;74.15;44.42;;;;;;;0.26;100.00;96682.78;2038026;29;20309;-72
2021/11/27 00:48:22;;;;;;;91.68;47.65;;;;;;;0.22;100.00;96674.75;2030467;29;20227;-72
2021/11/27 00:49:24;;;;;;;79.07;44.92;;;;;;;0.21;100.00;96678.44;2037652;29;20321;-73
2021/11/27 00:50:30;;;;;;;79.28;47.45;;;;;;;0.22;100.00;96676.59;2038048;29;20223;-72
2021/11/27 00:51:32;;;;;;;81.07;45.45;;;;;;;0.21;100.00;96672.41;2038151;29;20226;-72
2021/11/27 00:52:35;;;;;;;73.82;44.58;;;;;;;0.21;100.00;96681.06;2038130;29;20233;-72
2021/11/27 00:53:41;;;;;;;77.78;42.92;;;;;;;0.21;100.00;96696.78;2037173;29;20286;-73
2021/11/27 00:54:42;;;;;;;72.22;42.20;;;;;;;0.26;100.00;96682.78;2038046;29;20286;-72
2021/11/27 00:55:44;;;;;;;77.67;43.87;;;;;;;0.26;100.00;96680.19;2030242;29;20254;-72
2021/11/27 00:56:46;;;;;;;75.50;41.58;;;;;;;0.24;100.00;96669.19;2030036;29;20226;-72
2021/11/27 00:57:48;;;;;;;66.23;40.07;;;;;;;0.31;100.00;96679.31;2037731;29;20313;-72
2021/11/27 00:58:49;;;;;;;70.07;41.80;;;;;;;0.24;100.00;96667.34;2038809;28;20231;-73
2021/11/27 00:59:51;;;;;;;71.63;41.30;;;;;;;0.23;100.00;96672.91;2038850;28;20313;-72
2021/11/27 01:00:54;;;;;;;63.05;37.72;;;;;;;0.23;100.00;96693.88;2037344;29;20717;-73
2021/11/27 01:01:57;;;;;;;69.47;41.38;;;;;;;0.22;100.00;96687.84;2038044;29;20749;-72
2021/11/27 01:02:59;;;;;;;71.93;40.72;;;;;;;0.24;100.00;96695.44;2038747;28;20231;-72
2021/11/27 01:04:01;;;;;;;69.53;38.80;;;;;;;0.24;100.00;96688.34;2037997;29;20239;-72
2021/11/27 01:05:03;;;;;;;59.90;38.50;;;;;;;0.23;100.00;96694.66;2038258;29;20724;-72
2021/11/27 01:06:06;;;;;;;66.82;39.70;;;;;;;0.19;100.00;96701.53;2037770;29;20233;-72
2021/11/27 01:07:09;;;;;;;66.60;40.80;;;;;;;0.18;100.00;96699.22;2037643;28;20590;-73
2021/11/27 01:08:11;;;;;;;65.22;39.40;;;;;;;0.16;100.00;96698.69;2037968;29;20235;-73
2021/11/27 01:09:14;;;;;;;66.90;39.72;;;;;;;0.14;100.00;96706.06;2038061;29;20693;-72
2021/11/27 01:10:21;;;;;;;61.22;38.72;;;;;;;0.15;100.00;96697.91;2038378;29;20246;-72
2021/11/27 01:11:25;;;;;;;64.07;39.40;;;;;;;0.15;100.00;96697.91;2037149;29;20739;-73
2021/11/27 01:12:27;;;;;;;66.15;39.45;;;;;;;0.17;100.00;96701.03;2030562;29;20231;-72
2021/11/27 01:13:31;;;;;;;66.10;39.07;;;;;;;0.18;100.00;96715.72;2030123;29;20230;-72
2021/11/27 01:14:36;;;;;;;63.55;39.00;;;;;;;0.15;100.00;96699.75;2038130;29;20241;-72
2021/11/27 01:15:37;;;;;;;65.55;38.97;;;;;;;0.15;100.00;96697.16;2038199;28;20227;-73
2021/11/27 01:16:41;;;;;;;64.22;38.88;;;;;;;0.13;100.00;96689.56;2038690;28;20230;-73
2021/11/27 01:17:42;;;;;;;59.55;36.90;;;;;;;0.20;100.00;96694.44;2037952;29;20231;-73
2021/11/27 01:18:44;;;;;;;62.45;36.75;;;;;;;0.17;100.00;96692.38;2038109;29;20227;-72
2021/11/27 01:19:45;;;;;;;55.58;36.38;;;;;;;0.20;100.00;96705.72;2037866;29;20226;-71
2021/11/27 01:20:53;;;;;;;56.70;37.63;;;;;;;0.19;100.00;96703.38;2030389;29;20282;-72
2021/11/27 01:21:59;;;;;;;60.30;38.15;;;;;;;0.17;100.00;96698.41;2037766;28;20851;-72
2021/11/27 01:23:02;;;;;;;59.45;35.90;;;;;;;0.21;100.00;96743.97;2038734;28;20380;-72
2021/11/27 01:24:07;;;;;;;55.05;36.97;;;;;;;0.20;100.00;96697.06;2038779;28;20286;-71
2021/11/27 01:25:09;;;;;;;60.67;37.33;;;;;;;0.18;100.00;96709.69;2037505;29;20230;-72
2021/11/27 01:26:11;;;;;;;59.92;36.85;;;;;;;0.16;100.00;96709.19;2030354;29;20674;-72
2021/11/27 01:27:12;;;;;;;53.88;35.88;;;;;;;0.17;100.00;96701.03;2037839;29;20231;-72
2021/11/27 01:28:18;;;;;;;53.63;35.20;;;;;;;0.20;100.00;96697.84;2038055;29;20223;-72
2021/11/27 01:29:22;;;;;;;47.33;34.53;;;;;;;0.18;100.00;96679.00;2037708;28;20334;-73
2021/11/27 01:30:24;;;;;;;59.75;36.25;;;;;;;0.18;100.00;96704.47;2037792;29;20266;-72
2021/11/27 01:31:25;;;;;;;55.63;35.85;;;;;;;0.20;100.00;96694.44;2038014;29;20614;-72
2021/11/27 01:32:27;;;;;;;49.97;34.47;;;;;;;0.16;100.00;96711.81;2038014;29;20226;-72
2021/11/27 01:33:30;;;;;;;51.78;34.42;;;;;;;0.16;100.00;96693.47;2037856;29;20222;-72
2021/11/27 01:34:39;;;;;;;50.08;34.72;;;;;;;0.20;100.00;96695.22;2030142;29;20701;-72
2021/11/27 01:35:40;;;;;;;56.67;36.03;;;;;;;0.19;100.00;96690.28;2037329;29;20650;-72
2021/11/27 01:36:42;;;;;;;49.40;35.45;;;;;;;0.17;100.00;96700.25;2037952;29;20238;-72
2021/11/27 01:37:43;;;;;;;47.35;33.97;;;;;;;0.15;100.00;96686.66;2038720;28;20227;-72
2021/11/27 01:38:45;;;;;;;52.28;34.67;;;;;;;0.14;100.00;96701.63;2037790;29;20235;-72
2021/11/27 01:39:46;;;;;;;44.90;32.22;;;;;;;0.21;100.00;96698.63;2037626;29;20262;-72
2021/11/27 01:40:49;;;;;;;49.37;37.23;;;;;;;0.22;100.00;96687.06;2038137;29;20231;-72
2021/11/27 01:41:50;;;;;;;50.20;34.80;;;;;;;0.20;100.00;96678.72;2030404;29;20302;-72
2021/11/27 01:42:54;;;;;;;50.55;34.38;;;;;;;0.17;100.00;96679.28;2029388;29;20235;-73
2021/11/27 01:43:55;;;;;;;47.88;35.40;;;;;;;0.18;100.00;96686.09;2030276;29;20231;-72
2021/11/27 01:44:58;;;;;;;50.80;35.67;;;;;;;0.14;100.00;96685.09;2030127;29;20232;-72
2021/11/27 01:45:59;;;;;;;47.00;33.65;;;;;;;0.14;100.00;96682.47;2037883;29;20278;-72
2021/11/27 01:47:01;;;;;;;47.75;34.15;;;;;;;0.22;100.00;96676.59;2038152;29;20226;-73
2021/11/27 01:48:06;;;;;;;48.20;34.78;;;;;;;0.24;100.00;96698.03;2030036;29;20227;-72
2021/11/27 01:49:11;;;;;;;49.45;35.75;;;;;;;0.21;100.00;96693.38;2037621;28;20286;-72
2021/11/27 01:50:12;;;;;;;45.70;32.90;;;;;;;0.21;100.00;96690.75;2037836;29;20611;-72
2021/11/27 01:51:16;;;;;;;44.43;32.10;;;;;;;0.15;100.00;96690.06;2037883;29;20250;-72
2021/11/27 01:52:17;;;;;;;42.10;32.50;;;;;;;0.15;100.00;96699.75;2030260;29;20227;-72
2021/11/27 01:53:22;;;;;;;47.45;33.05;;;;;;;0.19;100.00;96698.91;2031129;29;20351;-72
2021/11/27 01:54:24;;;;;;;44.20;32.88;;;;;;;0.16;100.00;96694.22;2031573;29;20267;-72
2021/11/27 01:55:27;;;;;;;43.50;33.53;;;;;;;0.16;100.00;96693.47;2031444;29;20258;-72
2021/11/27 01:56:35;;;;;;;49.67;32.60;;;;;;;0.17;100.00;96690.53;2031743;29;20227;-72
2021/11/27 01:57:43;;;;;;;45.50;33.17;;;;;;;0.25;100.00;96692.50;2032747;29;20233;-72
2021/11/27 01:58:45;;;;;;;46.05;32.83;;;;;;;0.23;100.00;96684.16;2039302;29;20310;-72
2021/11/27 01:59:47;;;;;;;43.78;33.00;;;;;;;0.20;100.00;96690.00;2039340;29;20238;-72
2021/11/27 02:00:53;;;;;;;41.85;32.47;;;;;;;0.23;100.00;96699.13;2031535;29;20611;-72
2021/11/27 02:01:55;;;;;;;47.47;33.28;;;;;;;0.20;100.00;96691.84;2031665;29;20235;-72
2021/11/27 02:03:02;;;;;;;41.80;32.72;;;;;;;0.19;100.00;96693.69;2031957;29;20223;-71
2021/11/27 02:04:26;;;;;;;45.50;32.05;;;;;;;0.18;100.00;96676.41;2038913;28;20242;-72
2021/11/27 02:05:27;;;;;;;43.75;33.30;;;;;;;0.18;100.00;96694.75;2039099;29;20720;-72
2021/11/27 02:06:30;;;;;;;42.30;31.60;;;;;;;0.18;100.00;96681.63;2039233;29;20252;-72
2021/11/27 02:07:31;;;;;;;41.78;32.15;;;;;;;0.16;100.00;96693.47;2039466;29;20219;-72
2021/11/27 02:08:33;;;;;;;44.85;32.90;;;;;;;0.15;100.00;96697.16;2039500;29;20230;-72
2021/11/27 02:09:39;;;;;;;43.90;33.10;;;;;;;0.24;100.00;96687.56;2039299;29;20362;-72
2021/11/27 02:10:41;;;;;;;46.83;32.58;;;;;;;0.29;100.00;96692.72;2031543;29;20283;-73
2021/11/27 02:11:48;;;;;;;39.28;31.60;;;;;;;0.26;100.00;96690.66;2031406;29;20702;-73
2021/11/27 02:12:50;;;;;;;44.50;32.67;;;;;;;0.23;100.00;96688.63;2039134;29;20219;-72
2021/11/27 02:13:55;;;;;;;41.17;32.63;;;;;;;0.20;100.00;96690.00;2031238;29;20227;-73
2021/11/27 02:14:56;;;;;;;40.03;31.20;;;;;;;0.18;100.00;96680.88;2039119;29;20230;-72
2021/11/27 02:15:57;;;;;;;42.22;32.25;;;;;;;0.19;100.00;96691.06;2039211;29;20231;-72
2021/11/27 02:17:00;;;;;;;42.83;32.23;;;;;;;0.17;100.00;96677.44;2031424;29;20323;-72
2021/11/27 02:18:03;;;;;;;41.45;32.72;;;;;;;0.20;100.00;96689.22;2039174;29;20253;-73
2021/11/27 02:19:06;;;;;;;42.88;33.08;;;;;;;0.16;100.00;96683.75;2031592;29;20238;-72
2021/11/27 02:20:09;;;;;;;40.15;32.22;;;;;;;0.18;100.00;96686.09;2030967;29;20240;-73
2021/11/27 02:21:14;;;;;;;44.35;32.78;;;;;;;0.18;100.00;96686.09;2031502;29;20310;-72
2021/11/27 02:22:16;;;;;;;44.30;32.85;;;;;;;0.22;100.00;96681.84;2039241;29;20674;-72
2021/11/27 02:23:21;;;;;;;46.10;33.35;;;;;;;0.22;100.00;96682.59;2031594;29;20227;-72
2021/11/27 02:24:25;;;;;;;46.60;33.92;;;;;;;0.21;100.00;96672.41;2031179;29;20242;-72
2021/11/27 02:25:26;;;;;;;45.83;33.70;;;;;;;0.22;100.00;96681.84;2031911;29;20223;-73
2021/11/27 02:26:34;;;;;;;47.27;34.07;;;;;;;0.26;100.00;96686.22;2039140;29;20262;-72
2021/11/27 02:27:37;;;;;;;45.72;32.55;;;;;;;0.25;100.00;96681.25;2038750;29;20234;-73
2021/11/27 02:28:42;;;;;;;43.20;31.88;;;;;;;0.27;100.00;96681.75;2031401;29;20762;-73
2021/11/27 02:29:43;;;;;;;44.42;31.80;;;;;;;0.27;100.00;96687.78;2031657;29;20227;-72
2021/11/27 02:30:45;;;;;;;43.10;32.20;;;;;;;0.30;100.00;96690.88;2039087;29;20670;-73
2021/11/27 02:31:46;;;;;;;46.58;33.92;;;;;;;0.27;100.00;96695.66;2031259;29;20239;-72
2021/11/27 02:32:48;;;;;;;45.53;33.22;;;;;;;0.32;100.00;96686.91;2039014;29;20266;-73
2021/11/27 02:33:49;;;;;;;44.92;34.65;;;;;;;0.30;100.00;96696.91;2039195;29;20222;-72
2021/11/27 02:34:51;;;;;;;46.43;33.03;;;;;;;0.30;100.00;96691.66;2031431;29;20231;-72
2021/11/27 02:35:55;;;;;;;41.67;32.58;;;;;;;0.30;100.00;96693.50;2030786;29;20245;-73
2021/11/27 02:37:02;;;;;;;42.30;32.92;;;;;;;0.32;100.00;96691.38;2039024;29;20230;-73
2021/11/27 02:38:05;;;;;;;43.80;33.00;;;;;;;0.32;100.00;96707.88;2039082;29;20223;-72
2021/11/27 02:39:09;;;;;;;44.33;32.72;;;;;;;0.32;100.00;96702.63;2039057;29;20233;-73
2021/11/27 02:40:11;;;;;;;43.05;32.97;;;;;;;0.29;100.00;96705.84;2038498;29;20238;-73
2021/11/27 02:41:13;;;;;;;41.40;31.75;;;;;;;0.28;100.00;96704.28;2031512;29;20275;-73
2021/11/27 02:42:14;;;;;;;46.45;33.42;;;;;;;0.27;100.00;96705.34;2031148;29;20236;-72
2021/11/27 02:43:16;;;;;;;45.23;33.10;;;;;;;0.33;100.00;96703.41;2039108;29;20227;-72
2021/11/27 02:44:17;;;;;;;43.55;32.58;;;;;;;0.34;100.00;96705.75;2039639;28;20269;-72
2021/11/27 02:45:19;;;;;;;45.97;33.55;;;;;;;0.31;100.00;96695.84;2039243;29;20222;-73
2021/11/27 02:46:20;;;;;;;43.00;31.83;;;;;;;0.31;100.00;96695.84;2039034;29;20218;-72
2021/11/27 02:47:22;;;;;;;40.60;31.60;;;;;;;0.28;100.00;96686.72;2039039;29;20617;-73
2021/11/27 02:48:23;;;;;;;42.97;32.97;;;;;;;0.26;100.00;96685.41;2038522;29;20294;-72
2021/11/27 02:49:27;;;;;;;46.28;35.58;;;;;;;0.31;100.00;96687.97;2031123;29;20235;-72
2021/11/27 02:50:28;;;;;;;41.80;34.22;;;;;;;0.31;100.00;96695.06;2031271;29;20314;-72
2021/11/27 02:51:30;;;;;;;43.28;33.42;;;;;;;0.29;100.00;96692.72;2039121;29;20744;-73
2021/11/27 02:52:33;;;;;;;45.13;32.90;;;;;;;0.28;100.00;96697.19;2038840;29;20222;-73
2021/11/27 02:53:35;;;;;;;42.50;32.40;;;;;;;0.31;100.00;96695.06;2031518;29;20228;-72
2021/11/27 02:54:37;;;;;;;43.17;31.80;;;;;;;0.31;100.00;96695.84;2038456;29;20226;-73
2021/11/27 02:55:39;;;;;;;44.27;32.73;;;;;;;0.28;100.00;96693.81;2038911;29;20250;-72
2021/11/27 02:56:43;;;;;;;43.33;32.60;;;;;;;0.33;100.00;96708.66;2038685;29;20244;-73
2021/11/27 02:57:48;;;;;;;40.10;31.52;;;;;;;0.34;100.00;96700.50;2031493;29;20234;-73
2021/11/27 02:58:49;;;;;;;41.03;31.67;;;;;;;0.31;100.00;96711.56;2031343;29;20705;-73
2021/11/27 02:59:51;;;;;;;44.07;33.27;;;;;;;0.32;100.00;96712.34;2038862;29;20595;-73
2021/11/27 03:00:53;;;;;;;42.45;32.22;;;;;;;0.28;100.00;96714.78;2038679;28;20459;-73
2021/11/27 03:01:57;;;;;;;44.75;32.65;;;;;;;0.31;100.00;96723.91;2038855;29;20624;-73
2021/11/27 03:03:01;;;;;;;46.28;32.63;;;;;;;0.32;100.00;96723.63;2038837;29;20309;-72
2021/11/27 03:04:03;;;;;;;41.13;32.43;;;;;;;0.33;100.00;96727.78;2038779;29;20751;-72
2021/11/27 03:05:06;;;;;;;47.75;33.58;;;;;;;0.34;100.00;96726.72;2039611;28;20697;-73
2021/11/27 03:06:08;;;;;;;47.00;33.70;;;;;;;0.32;100.00;96734.09;2038351;29;20235;-75
2021/11/27 03:07:09;;;;;;;42.65;32.72;;;;;;;0.35;100.00;96732.75;2031004;29;20236;-73
2021/11/27 03:08:12;;;;;;;43.77;32.57;;;;;;;0.34;100.00;96739.06;2038777;29;20231;-73
2021/11/27 03:09:16;;;;;;;43.20;32.38;;;;;;;0.34;100.00;96746.94;2030969;29;20287;-72
2021/11/27 03:10:22;;;;;;;46.20;33.38;;;;;;;0.32;100.00;96736.72;2038850;29;20623;-72
2021/11/27 03:11:24;;;;;;;45.60;33.13;;;;;;;0.33;100.00;96746.16;2038283;29;20253;-72
2021/11/27 03:12:26;;;;;;;45.03;32.63;;;;;;;0.34;100.00;96750.31;2038747;29;20698;-73
2021/11/27 03:13:29;;;;;;;43.72;33.10;;;;;;;0.35;100.00;96749.28;2038645;29;20653;-73
2021/11/27 03:14:31;;;;;;;50.50;33.78;;;;;;;0.35;100.00;96757.16;2038769;29;20241;-72
2021/11/27 03:15:37;;;;;;;51.38;34.08;;;;;;;0.34;100.00;96763.44;2038703;29;20227;-73
2021/11/27 03:16:39;;;;;;;48.08;33.75;;;;;;;0.33;100.00;96753.25;2031056;29;20239;-73
2021/11/27 03:17:42;;;;;;;51.97;35.78;;;;;;;0.34;100.00;96757.41;2031160;29;20234;-72
2021/11/27 03:18:53;;;;;;;49.22;34.53;;;;;;;0.33;100.00;96756.63;2031074;29;20679;-72
2021/11/27 03:19:56;;;;;;;49.97;35.03;;;;;;;0.33;100.00;96779.47;2031716;29;20238;-72
2021/11/27 03:20:57;;;;;;;53.30;36.40;;;;;;;0.41;100.00;96771.72;2031000;29;21202;-72
2021/11/27 03:21:59;;;;;;;52.10;34.85;;;;;;;0.37;100.00;96762.88;2038612;29;20222;-72
2021/11/27 03:23:04;;;;;;;48.92;35.85;;;;;;;0.34;100.00;96763.44;2038662;29;20223;-73
2021/11/27 03:24:08;;;;;;;53.33;36.15;;;;;;;0.34;100.00;96766.06;2031024;29;20690;-73
2021/11/27 03:25:12;;;;;;;48.00;35.85;;;;;;;0.33;100.00;96761.88;2030480;29;20250;-72
2021/11/27 03:26:18;;;;;;;54.50;37.53;;;;;;;0.37;100.00;96760.25;2031483;29;20243;-73
2021/11/27 03:27:19;;;;;;;56.53;37.13;;;;;;;0.36;100.00;96779.69;2038864;29;20358;-73
2021/11/27 03:28:21;;;;;;;53.87;35.53;;;;;;;0.42;100.00;96781.16;2030795;29;20224;-72
2021/11/27 03:29:23;;;;;;;51.10;34.30;;;;;;;0.49;100.00;96775.53;2038164;29;20242;-74
2021/11/27 03:30:23;;;;;;;54.60;37.50;;;;;;;0.45;100.00;96779.81;2031037;29;20231;-73
2021/11/27 03:31:30;;;;;;;54.55;36.30;;;;;;;0.48;100.00;96819.34;2038437;29;20248;-72
2021/11/27 03:32:39;;;;;;;54.33;36.40;;;;;;;0.41;100.00;96769.09;2038199;29;20705;-73
2021/11/27 03:33:53;;;;;;;52.45;35.97;;;;;;;0.40;100.00;96770.16;2031882;29;20258;-76
2021/11/27 03:34:54;;;;;;;48.83;35.25;;;;;;;0.41;100.00;96784.84;2038509;29;20254;-72
2021/11/27 03:35:59;;;;;;;49.88;34.33;;;;;;;0.40;100.00;96783.28;2031204;29;20260;-72
2021/11/27 03:37:00;;;;;;;50.95;35.25;;;;;;;0.42;100.00;96775.91;2030734;29;20585;-73
2021/11/27 03:38:02;;;;;;;50.83;36.77;;;;;;;0.40;100.00;96798.25;2030633;29;20314;-72
2021/11/27 03:39:08;;;;;;;51.28;34.83;;;;;;;0.38;100.00;96793.28;2031005;29;20263;-72
2021/11/27 03:40:12;;;;;;;50.05;35.50;;;;;;;0.38;100.00;96782.03;2030627;29;20686;-72
2021/11/27 03:41:14;;;;;;;47.53;33.80;;;;;;;0.40;100.00;96783.28;2030852;29;20224;-72
2021/11/27 03:42:17;;;;;;;47.20;33.90;;;;;;;0.38;100.00;96782.81;2030728;29;20223;-73
2021/11/27 03:43:19;;;;;;;49.92;34.95;;;;;;;0.41;100.00;96791.94;2030859;29;20366;-72
2021/11/27 03:44:20;;;;;;;47.83;34.75;;;;;;;0.46;100.00;96804.97;2038539;29;20245;-72
2021/11/27 03:45:27;;;;;;;48.07;34.07;;;;;;;0.41;100.00;96792.72;2038571;29;20246;-72
2021/11/27 03:46:28;;;;;;;43.78;33.60;;;;;;;0.42;100.00;96794.25;2038096;29;20455;-72
2021/11/27 03:47:31;;;;;;;50.08;32.72;;;;;;;0.46;100.00;96791.88;2030805;29;20246;-72
2021/11/27 03:48:33;;;;;;;43.78;32.28;;;;;;;0.41;100.00;96805.81;2030795;29;20327;-72
2021/11/27 03:49:44;;;;;;;44.55;31.02;;;;;;;0.48;100.00;96801.00;2031508;29;20290;-73
2021/11/27 03:50:49;;;;;;;44.83;32.13;;;;;;;0.48;100.00;96806.25;2031092;29;20230;-72
2021/11/27 03:51:51;;;;;;;43.65;31.00;;;;;;;0.46;100.00;96800.50;2038444;29;20717;-72
2021/11/27 03:52:53;;;;;;;45.65;32.63;;;;;;;0.46;100.00;96802.34;2038001;29;20688;-73
2021/11/27 03:53:56;;;;;;;43.78;32.20;;;;;;;0.46;100.00;96800.50;2038360;29;20238;-73
2021/11/27 03:54:58;;;;;;;42.00;30.33;;;;;;;0.46;100.00;96797.88;2038455;29;21321;-72
2021/11/27 03:56:01;;;;;;;40.55;30.77;;;;;;;0.43;100.00;96816.81;2030640;29;20227;-72
2021/11/27 03:57:03;;;;;;;45.80;31.35;;;;;;;0.40;100.00;96808.72;2030762;29;21761;-72
2021/11/27 03:58:04;;;;;;;45.17;33.22;;;;;;;0.40;100.00;96808.72;2030741;29;20745;-72
2021/11/27 03:59:06;;;;;;;46.17;32.75;;;;;;;0.40;100.00;96806.88;2038535;29;20231;-72
2021/11/27 04:00:10;;;;;;;40.00;30.88;;;;;;;0.49;100.00;96817.50;2030178;29;20238;-74
2021/11/27 04:01:19;;;;;;;42.58;31.60;;;;;;;0.46;100.00;96818.88;2038395;29;20231;-73
2021/11/27 04:02:20;;;;;;;44.65;32.50;;;;;;;0.44;100.00;96820.22;2038314;29;20222;-72
2021/11/27 04:03:23;;;;;;;43.42;31.90;;;;;;;0.45;100.00;96822.56;2030451;29;20247;-73
2021/11/27 04:04:24;;;;;;;49.00;33.55;;;;;;;0.43;100.00;96831.75;2037838;29;20289;-72
2021/11/27 04:05:26;;;;;;;46.13;32.55;;;;;;;0.42;100.00;96835.44;2030574;29;20251;-72
2021/11/27 04:06:28;;;;;;;41.38;31.05;;;;;;;0.40;100.00;96829.72;2030669;29;20238;-72
2021/11/27 04:07:32;;;;;;;41.63;31.45;;;;;;;0.42;100.00;96833.59;2030875;29;20250;-72
2021/11/27 04:08:33;;;;;;;47.47;32.47;;;;;;;0.43;100.00;96837.78;2030580;29;20282;-72
2021/11/27 04:09:35;;;;;;;47.30;32.20;;;;;;;0.52;100.00;96836.09;2038206;29;20265;-72
2021/11/27 04:10:38;;;;;;;44.72;32.72;;;;;;;0.52;100.00;96845.78;2030215;29;20238;-73
2021/11/27 04:11:41;;;;;;;44.20;31.52;;;;;;;0.46;100.00;96844.31;2038123;29;20246;-72
2021/11/27 04:12:50;;;;;;;42.35;30.30;;;;;;;0.50;100.00;96853.94;2038338;29;20245;-71
2021/11/27 04:13:52;;;;;;;42.72;31.67;;;;;;;0.51;100.00;96839.75;2038169;29;20247;-71
2021/11/27 04:14:53;;;;;;;43.83;32.20;;;;;;;0.50;100.00;96842.69;2037595;29;20368;-71
2021/11/27 04:15:55;;;;;;;42.80;30.90;;;;;;;0.51;100.00;96852.88;2029931;29;20291;-74
2021/11/27 04:16:57;;;;;;;42.03;30.50;;;;;;;0.51;100.00;96857.34;2038218;29;20574;-73
2021/11/27 04:17:58;;;;;;;45.47;31.92;;;;;;;0.55;100.00;96853.09;2037970;29;20265;-72
2021/11/27 04:19:01;;;;;;;43.42;30.52;;;;;;;0.55;100.00;96847.88;2030291;29;20232;-73
2021/11/27 04:20:03;;;;;;;43.35;32.22;;;;;;;0.54;100.00;96849.72;2038293;29;20814;-73
2021/11/27 04:21:06;;;;;;;45.95;32.30;;;;;;;0.57;100.00;96850.97;2038269;29;20314;-73
2021/11/27 04:22:08;;;;;;;42.65;31.20;;;;;;;0.57;100.00;96857.00;2030285;29;20250;-74
2021/11/27 04:23:11;;;;;;;42.95;32.08;;;;;;;0.53;100.00;96850.00;2038216;29;20704;-73
2021/11/27 04:24:11;;;;;;;42.38;31.02;;;;;;;0.53;100.00;96845.53;2030355;29;20432;-73
2021/11/27 04:25:14;;;;;;;44.07;32.33;;;;;;;0.56;100.00;96858.06;2038185;29;20227;-73
2021/11/27 04:26:17;;;;;;;43.22;30.85;;;;;;;0.64;100.00;96861.13;2030693;29;20336;-73
2021/11/27 04:27:19;;;;;;;43.13;31.02;;;;;;;0.62;100.00;96863.25;2030385;29;20315;-73
2021/11/27 04:28:21;;;;;;;42.70;29.70;;;;;;;0.65;100.00;96862.66;2038297;29;20228;-73
2021/11/27 04:29:23;;;;;;;41.78;31.20;;;;;;;0.62;100.00;96860.63;2037875;29;20234;-73
2021/11/27 04:30:26;;;;;;;41.45;31.90;;;;;;;0.62;100.00;96869.28;2038384;29;20242;-74
2021/11/27 04:31:28;;;;;;;41.20;29.95;;;;;;;0.61;100.00;96857.22;2038097;29;20254;-71
2021/11/27 04:32:29;;;;;;;40.80;30.48;;;;;;;0.60;100.00;96857.47;2038151;29;20314;-73
2021/11/27 04:33:43;;;;;;;43.30;31.30;;;;;;;0.61;100.00;96856.41;2031350;29;20298;-74
2021/11/27 04:34:48;;;;;;;43.95;31.48;;;;;;;0.61;100.00;96856.41;2030457;29;20242;-73
2021/11/27 04:35:50;;;;;;;42.08;30.33;;;;;;;0.66;100.00;96854.50;2030731;29;20230;-73
2021/11/27 04:36:57;;;;;;;44.00;30.42;;;;;;;0.64;100.00;96850.63;2030691;29;20318;-73
2021/11/27 04:37:58;;;;;;;42.72;31.33;;;;;;;0.64;100.00;96853.25;2030630;29;20234;-73
2021/11/27 04:39:00;;;;;;;45.00;31.30;;;;;;;0.65;100.00;96855.56;2030093;29;20234;-73
2021/11/27 04:40:03;;;;;;;43.53;31.98;;;;;;;0.67;100.00;96850.03;2030427;29;20227;-73
2021/11/27 04:41:05;;;;;;;43.70;31.23;;;;;;;0.68;100.00;96847.13;2038014;29;20226;-73
2021/11/27 04:42:09;;;;;;;40.15;30.27;;;;;;;0.68;100.00;96846.34;2037486;29;20254;-76
2021/11/27 04:43:10;;;;;;;40.70;31.33;;;;;;;0.68;100.00;96856.84;2030694;29;20238;-73
2021/11/27 04:44:13;;;;;;;37.60;29.55;;;;;;;0.68;100.00;96864.72;2030251;29;20685;-74
2021/11/27 04:45:14;;;;;;;40.15;30.95;;;;;;;0.71;100.00;96851.03;2038021;29;20222;-73
2021/11/27 04:46:20;;;;;;;40.60;29.75;;;;;;;0.75;100.00;96857.25;2037985;29;20675;-73
2021/11/27 04:47:21;;;;;;;41.08;30.80;;;;;;;0.69;100.00;96847.91;2038188;29;20253;-73
2021/11/27 04:48:24;;;;;;;38.25;29.33;;;;;;;0.74;100.00;96853.84;2037782;29;20227;-73
2021/11/27 04:49:28;;;;;;;42.42;31.00;;;;;;;0.72;100.00;96852.59;2030233;29;20335;-73